Terminal Aerodrome Forecast
Issued by NWS Atlanta, GA

Home | Current Version | Previous Version | Text Only | Print | Product List | Glossary On
Versions: 1 2 3 4 5 6 7 8 9 10 11 12 13 14 15 16 17 18 19 20 21 22
000
FTUS42 KFFC 260020 AAA
TAFMCN
TAF AMD
KMCN 260020Z 2600/2624 09007KT P6SM VCSH SCT050 SCT110
      TEMPO 2600/2602 SHRA BKN040
     FM260200 00000KT P6SM FEW150
     FM260800 00000KT 4SM BR SCT012
     FM261300 03003KT P6SM FEW030
     FM261600 08005KT P6SM BKN040 BKN250 PROB30 2619/2623 P6SM TS
      BKN050CB=

USA.gov is the U.S. government's official web portal to all federal, state and local government web resources and services.